Latest Weather Observations for Orbost

IDV60801

Issued at 12:03 pm EST Monday 1 May 2017 (issued every 30 minutes, with the page automatically refreshed every 10 minutes)

About weather observations | Map of weather stations | Latest weather observations for VIC | Other Formats
Station Details ID: 084145 Name: ORBOST Lat: -37.69 Lon: 148.47 Height: 62.65 m
Data from the previous 72 hours. | See also: Recent months at Orbost
Date/Time
EST
Temp
°C
App
Temp
°C
Dew
Point
°C
Rel
Hum
%
Delta-T
°C
Wind Press
QNH
hPa
Press
MSL
hPa
Rain since
9am
mm
Dir  Spd
km/h
Gust
km/h
Spd
kts
Gust
kts
01/12:00pm 15.0 14.8 10.6 75 2.3 NW 2 4 1 2 1014.6 1014.6 0.0
01/11:30am 14.0 14.0 11.0 82 1.6 WNW 2 6 1 3 1015.0 1015.0 0.0
01/11:00am 13.4 13.6 10.6 83 1.5 CALM 0 0 0 0 1015.4 1015.4 0.0
01/10:30am 12.7 12.5 10.6 87 1.1 W 2 4 1 2 1015.6 1015.6 0.0
01/10:00am 12.2 11.0 10.3 88 1.0 W 7 9 4 5 1015.9 1015.9 0.0
01/09:30am 11.2 10.6 10.4 95 0.4 WNW 4 6 2 3 1015.7 1015.6 0.0
01/09:00am 10.0 9.6 9.9 99 0.1 W 2 4 1 2 1015.5 1015.4 537.0
01/08:30am 9.6 9.5 9.5 99 0.0 CALM 0 0 0 0 1015.3 1015.2 -
01/08:00am 9.3 8.4 9.2 99 0.0 NNW 4 6 2 3 1015.5 1015.4 -
01/07:30am 7.9 7.0 7.8 99 0.0 S 2 4 1 2 1015.5 1015.4 -
01/07:00am 8.9 7.5 8.8 99 0.0 ENE 6 7 3 4 1015.4 1015.3 -
01/06:30am 7.2 5.8 7.1 99 0.0 NNW 4 6 2 3 1015.6 1015.5 -
01/06:00am 8.5 7.8 8.4 99 0.0 NNW 2 6 1 3 1015.4 1015.3 -
01/05:30am 7.8 6.1 7.7 99 0.0 NNW 6 6 3 3 1015.6 1015.5 -
01/05:00am 8.2 7.8 8.1 99 0.0 CALM 0 0 0 0 1015.6 1015.5 -
01/04:30am 8.6 7.9 8.5 99 0.0 ENE 2 4 1 2 1015.7 1015.6 -
01/04:00am 8.7 8.0 8.6 99 0.0 NNE 2 4 1 2 1016.1 1016.0 0.0
01/03:30am 9.1 8.1 9.0 99 0.0 NW 4 6 2 3 1016.4 1016.3 0.0
01/03:00am 8.1 7.6 7.8 98 0.1 CALM 0 2 0 1 1016.5 1016.4 0.0
01/02:30am 9.1 8.1 8.8 98 0.1 NNE 4 6 2 3 1016.5 1016.4 0.0
01/02:00am 8.8 8.0 8.2 96 0.3 SW 2 4 1 2 1017.4 1017.3 0.0
01/01:30am 9.9 9.8 9.3 96 0.3 CALM 0 0 0 0 1017.5 1017.4 0.0
01/01:00am 10.1 10.0 9.5 96 0.3 CALM 0 0 0 0 1017.9 1017.8 0.0
01/12:30am 10.2 9.7 9.3 94 0.4 N 2 4 1 2 1018.1 1018.0 0.0
01/12:00am 10.5 10.4 9.6 94 0.5 CALM 0 0 0 0 1018.3 1018.2 0.0
 
Date/Time
EST
Temp
°C
App
Temp
°C
Dew
Point
°C
Rel
Hum
%
Delta-T
°C
Wind Press
QNH
hPa
Press
MSL
hPa
Rain since
9am
mm
Dir  Spd
km/h
Gust
km/h
Spd
kts
Gust
kts
30/11:30pm 11.0 10.6 9.9 93 0.6 WNW 2 6 1 3 1018.5 1018.4 0.0
30/11:00pm 11.2 9.8 9.6 90 0.8 N 7 7 4 4 1018.7 1018.6 0.0
30/10:30pm 12.1 10.9 10.3 89 0.9 N 7 9 4 5 1019.0 1018.9 0.0
30/10:00pm 11.3 9.9 9.7 90 0.8 N 7 9 4 5 1019.1 1019.0 0.0
30/09:30pm 12.0 10.7 10.1 88 1.0 N 7 9 4 5 1019.1 1019.0 0.0
30/09:00pm 11.8 10.6 10.2 90 0.8 N 7 9 4 5 1019.3 1019.3 0.0
30/08:30pm 11.7 10.6 10.1 90 0.8 N 6 7 3 4 1019.3 1019.3 0.0
30/08:00pm 11.8 10.8 10.2 90 0.8 NNW 6 6 3 3 1019.3 1019.3 0.0
30/07:30pm 11.7 10.7 10.3 91 0.7 NW 6 6 3 3 1019.4 1019.4 0.0
30/07:00pm 12.4 11.9 10.6 89 0.9 NNW 4 4 2 2 1019.4 1019.4 0.0
30/06:30pm 13.2 13.4 10.4 83 1.5 CALM 0 0 0 0 1019.4 1019.4 0.0
30/06:00pm 13.5 13.6 10.3 81 1.7 CALM 0 0 0 0 1019.4 1019.4 0.0
30/05:30pm 14.1 14.3 10.5 79 1.9 CALM 0 0 0 0 1019.2 1019.1 0.0
30/05:00pm 15.8 15.6 10.6 71 2.8 SE 2 6 1 3 1019.0 1018.9 0.0
30/04:30pm 17.0 16.1 10.8 67 3.3 SE 6 9 3 5 1018.9 1018.8 0.0
30/04:00pm 17.8 16.9 10.7 63 3.8 ESE 6 11 3 6 1018.9 1018.8 0.0
30/03:30pm 17.8 16.2 10.2 61 4.1 ESE 9 15 5 8 1019.0 1018.9 0.0
30/03:00pm 17.9 16.3 10.3 61 4.1 ESE 9 19 5 10 1019.2 1019.1 0.0
30/02:30pm 18.4 16.9 10.5 60 4.3 SSE 9 17 5 9 1019.3 1019.3 0.0
30/02:00pm 18.6 17.1 10.4 59 4.4 SE 9 15 5 8 1019.5 1019.5 0.0
30/01:30pm 18.8 17.7 10.1 57 4.7 ESE 6 11 3 6 1019.9 1019.9 0.0
30/01:00pm 18.7 17.5 9.5 55 4.9 S 6 11 3 6 1020.2 1020.2 0.0
30/12:30pm 19.0 18.1 9.2 53 5.2 W 4 7 2 4 1020.6 1020.6 0.0
30/12:00pm 18.9 18.2 9.9 56 4.8 WSW 4 11 2 6 1021.0 1021.0 0.0
30/11:30am 18.6 17.2 8.8 53 5.1 NE 6 11 3 6 1021.4 1021.4 0.0
30/11:00am 18.1 16.7 8.9 55 4.8 NE 6 13 3 7 1021.9 1021.9 0.0
30/10:30am 18.2 16.8 9.0 55 4.8 NE 6 11 3 6 1022.0 1022.0 0.0
30/10:00am 17.7 16.7 8.8 56 4.6 NE 4 9 2 5 1022.3 1022.3 0.0
30/09:30am 17.0 15.9 8.4 57 4.4 NNE 4 9 2 5 1022.6 1022.6 0.0
30/09:00am 16.7 15.8 9.1 61 3.9 E 4 6 2 3 1023.0 1023.0 0.0
30/08:30am 15.9 15.5 9.6 66 3.3 NNE 2 6 1 3 1023.4 1023.4 0.0
30/08:00am 13.1 13.5 11.3 89 0.9 CALM 0 0 0 0 1023.4 1023.4 0.0
30/07:30am 12.7 13.1 11.1 90 0.8 CALM 0 0 0 0 1023.3 1023.3 0.0
30/07:00am 12.4 12.4 11.0 91 0.7 ENE 2 4 1 2 1023.1 1023.1 0.0
30/06:30am 12.3 12.6 10.9 91 0.7 CALM 0 0 0 0 1023.1 1023.1 0.0
30/06:00am 12.8 13.0 10.7 87 1.1 CALM 0 0 0 0 1023.0 1023.0 0.0
30/05:30am 13.2 12.3 10.7 85 1.3 NNE 6 7 3 4 1023.1 1023.1 0.0
30/05:00am 13.1 12.3 11.0 87 1.1 N 6 7 3 4 1023.1 1023.1 0.0
30/04:30am 13.1 12.7 11.0 87 1.1 N 4 6 2 3 1023.0 1023.0 0.0
30/04:00am 13.0 12.2 11.1 88 1.0 N 6 6 3 3 1023.0 1023.0 0.0
30/03:30am 13.1 12.7 11.2 88 1.0 N 4 6 2 3 1022.9 1022.9 0.0
30/03:00am 13.1 12.7 11.0 87 1.1 NW 4 4 2 2 1023.0 1023.0 0.0
30/02:30am 13.2 13.2 11.1 87 1.1 NW 2 4 1 2 1023.1 1023.1 0.0
30/02:00am 13.4 13.1 11.3 87 1.1 WNW 4 6 2 3 1023.2 1023.2 0.0
30/01:30am 13.3 13.1 11.7 90 0.9 NW 4 4 2 2 1023.2 1023.2 0.0
30/01:00am 13.5 14.0 11.7 89 1.0 CALM 0 2 0 1 1023.2 1023.2 0.0
30/12:30am 14.0 14.4 11.3 84 1.4 CALM 0 0 0 0 1023.1 1023.1 0.0
30/12:00am 13.9 13.5 11.2 84 1.4 NW 4 4 2 2 1022.9 1022.9 0.0
 
Date/Time
EST
Temp
°C
App
Temp
°C
Dew
Point
°C
Rel
Hum
%
Delta-T
°C
Wind Press
QNH
hPa
Press
MSL
hPa
Rain since
9am
mm
Dir  Spd
km/h
Gust
km/h
Spd
kts
Gust
kts
29/11:30pm 14.2 14.2 11.2 82 1.6 NW 2 2 1 1 1022.9 1022.9 0.0
29/11:00pm 14.3 14.3 11.3 82 1.6 NW 2 4 1 2 1023.0 1023.0 0.0
29/10:30pm 14.3 14.0 11.3 82 1.6 NW 4 6 2 3 1023.1 1023.1 0.0
29/10:00pm 14.6 14.2 11.2 80 1.8 NW 4 6 2 3 1023.2 1023.2 0.0
29/09:30pm 14.7 14.3 11.1 79 1.9 NW 4 6 2 3 1023.2 1023.2 0.0
29/09:00pm 14.9 14.6 11.3 79 1.9 W 4 6 2 3 1023.2 1023.2 0.0
29/08:30pm 15.0 14.3 11.4 79 1.9 WNW 6 9 3 5 1022.9 1022.9 0.0
29/08:00pm 14.9 14.6 11.3 79 1.9 WNW 4 7 2 4 1022.8 1022.8 0.0
29/07:30pm 15.0 14.7 11.4 79 1.9 W 4 6 2 3 1022.8 1022.8 0.0
29/07:00pm 15.2 14.9 11.4 78 2.0 W 4 7 2 4 1022.5 1022.5 0.0
29/06:30pm 15.2 14.9 11.4 78 2.0 WSW 4 6 2 3 1022.3 1022.3 0.0
29/06:00pm 15.4 14.5 11.2 76 2.2 WSW 7 11 4 6 1022.0 1022.0 0.0
29/05:30pm 15.4 14.5 11.4 77 2.2 SW 7 13 4 7 1021.6 1021.6 0.0
29/05:00pm 15.7 14.5 11.7 77 2.2 WSW 9 13 5 7 1021.4 1021.4 0.0
29/04:30pm 16.0 14.5 12.0 77 2.2 WSW 11 19 6 10 1021.3 1021.3 0.0
29/04:00pm 16.1 13.9 12.1 77 2.2 SW 15 22 8 12 1021.0 1021.0 0.0
29/03:30pm 16.3 14.2 12.5 78 2.1 SW 15 24 8 13 1020.6 1020.6 0.0
29/03:00pm 16.6 15.0 12.8 78 2.1 WSW 13 19 7 10 1020.4 1020.4 0.0
29/02:30pm 16.4 14.1 12.9 80 1.9 SW 17 24 9 13 1020.2 1020.2 0.0
29/02:00pm 15.9 13.0 13.0 83 1.6 SSW 20 30 11 16 1020.2 1020.2 0.0
29/01:30pm 18.3 15.7 12.1 67 3.4 SW 17 24 9 13 1019.7 1019.7 0.0
29/01:00pm 18.4 15.1 11.7 65 3.7 WSW 20 33 11 18 1019.7 1019.7 0.0
29/12:30pm 18.5 15.1 11.1 62 4.0 W 20 37 11 20 1019.9 1019.9 0.0
29/12:00pm 17.8 15.8 11.4 66 3.5 WSW 13 22 7 12 1020.1 1020.1 0.0
29/11:30am 18.1 15.3 11.4 65 3.7 W 17 28 9 15 1020.3 1020.3 0.0
29/11:00am 18.3 16.0 11.8 66 3.6 WSW 15 30 8 16 1020.5 1020.5 0.0
29/10:30am 16.6 14.9 10.0 65 3.5 NW 9 15 5 8 1020.5 1020.5 0.0
29/10:00am 16.3 14.5 9.5 64 3.5 NW 9 19 5 10 1020.6 1020.6 0.0
29/09:30am 15.9 13.2 8.9 63 3.6 NNW 13 17 7 9 1020.3 1020.3 0.0
29/09:00am 14.4 11.6 8.4 67 3.0 NNW 13 19 7 10 1020.3 1020.3 0.2
29/08:30am 14.2 11.3 8.2 67 3.0 NNW 13 19 7 10 1020.4 1020.4 0.2
29/08:00am 13.4 9.7 7.8 69 2.8 NNW 17 20 9 11 1020.1 1020.1 0.2
29/07:30am 13.4 10.8 7.8 69 2.8 NNW 11 17 6 9 1020.0 1020.0 0.2
29/07:00am 13.1 10.6 8.0 71 2.5 NNW 11 13 6 7 1019.8 1019.8 0.2
29/06:30am 13.3 10.7 7.7 69 2.8 NNW 11 15 6 8 1019.6 1019.6 0.2
29/06:00am 13.4 10.1 8.0 70 2.7 NNW 15 19 8 10 1019.2 1019.1 0.2
29/05:30am 13.3 9.6 8.0 70 2.6 N 17 22 9 12 1019.1 1019.0 0.2
29/05:00am 13.1 9.4 7.8 70 2.6 N 17 20 9 11 1019.0 1018.9 0.2
29/04:30am 13.0 9.3 7.9 71 2.5 N 17 22 9 12 1019.0 1018.9 0.2
29/04:00am 12.8 9.5 7.9 72 2.4 NNW 15 19 8 10 1019.1 1019.0 0.2
29/03:30am 12.8 10.3 8.1 73 2.3 NNW 11 17 6 9 1019.2 1019.1 0.2
29/03:00am 12.4 10.9 8.5 77 1.9 NW 6 11 3 6 1019.1 1019.0 0.2
29/02:30am 11.8 10.2 8.1 78 1.8 NW 6 9 3 5 1019.3 1019.3 0.2
29/02:00am 12.9 10.8 8.2 73 2.3 NW 9 13 5 7 1019.5 1019.5 0.2
29/01:30am 12.9 10.8 8.4 74 2.2 NNW 9 15 5 8 1019.5 1019.5 0.2
29/01:00am 12.8 10.8 8.5 75 2.1 NNW 9 15 5 8 1019.5 1019.5 0.2
29/12:30am 13.0 10.6 8.7 75 2.2 NNW 11 17 6 9 1019.7 1019.7 0.2
29/12:00am 13.2 9.5 9.3 77 2.0 N 19 26 10 14 1019.7 1019.7 0.2
 
Date/Time
EST
Temp
°C
App
Temp
°C
Dew
Point
°C
Rel
Hum
%
Delta-T
°C
Wind Press
QNH
hPa
Press
MSL
hPa
Rain since
9am
mm
Dir  Spd
km/h
Gust
km/h
Spd
kts
Gust
kts
28/11:30pm 12.8 9.9 9.8 82 1.5 N 15 19 8 10 1019.9 1019.9 0.2
28/11:00pm 13.0 11.7 10.0 82 1.5 NNW 7 15 4 8 1020.3 1020.3 0.2
28/10:30pm 12.7 11.5 9.5 81 1.6 NNW 6 9 3 5 1020.5 1020.5 0.2
28/10:00pm 13.9 11.5 9.9 77 2.1 NNW 13 17 7 9 1020.5 1020.5 0.2
28/09:30pm 13.5 11.8 9.9 79 1.9 NNW 9 13 5 7 1020.6 1020.6 0.2
28/09:00pm 13.8 12.1 10.0 78 2.0 NNW 9 15 5 8 1020.7 1020.7 0.2
28/08:30pm 14.1 12.9 10.3 78 2.0 NNW 7 11 4 6 1020.7 1020.7 0.2
28/08:00pm 14.0 12.9 10.6 80 1.8 NNW 7 11 4 6 1020.7 1020.7 0.2
28/07:30pm 14.9 14.1 11.1 78 2.0 NW 6 7 3 4 1020.8 1020.8 0.2
28/07:00pm 15.5 14.8 11.3 76 2.2 NW 6 11 3 6 1020.8 1020.8 0.2
28/06:30pm 15.8 15.1 11.4 75 2.4 W 6 13 3 7 1020.7 1020.7 0.2
28/06:00pm 15.9 14.2 11.1 73 2.6 WSW 11 17 6 9 1020.4 1020.4 0.2
28/05:30pm 16.4 15.3 10.0 66 3.4 SSW 6 7 3 4 1020.2 1020.2 0.2
28/05:00pm 17.8 16.8 10.2 61 4.0 SW 6 7 3 4 1020.1 1020.1 0.2
28/04:30pm 17.8 16.7 9.9 60 4.2 WNW 6 9 3 5 1020.0 1020.0 0.2
28/04:00pm 17.9 16.7 10.3 61 4.1 WNW 7 11 4 6 1020.2 1020.2 0.2
28/03:30pm 18.2 16.9 9.8 58 4.5 WNW 7 13 4 7 1020.3 1020.3 0.2
28/03:00pm 18.1 16.9 9.5 57 4.5 WNW 6 9 3 5 1020.2 1020.2 0.2
28/02:30pm 18.4 17.0 9.7 57 4.6 W 7 13 4 7 1020.3 1020.3 0.2
28/02:00pm 18.6 16.5 9.9 57 4.6 W 11 20 6 11 1020.3 1020.3 0.2
28/01:30pm 18.1 15.5 9.5 57 4.5 WNW 13 22 7 12 1020.4 1020.4 0.2
28/01:00pm 17.3 15.1 9.2 59 4.2 W 11 19 6 10 1020.9 1020.9 0.2
28/12:30pm 17.4 15.3 9.6 60 4.1 WNW 11 17 6 9 1021.4 1021.4 0.2

Other Formats:

Comma delimited format used in spreadsheet applications
http://www.bom.gov.au/fwo/IDV60801/IDV60801.95918.axf

JavaScript Object Notation format (JSON) in row-major order
http://www.bom.gov.au/fwo/IDV60801/IDV60801.95918.json